AirNav   Duncan Aviation - Near you to keep you flying
 
 532 users online  

KEMT San Gabriel Valley Airport
El Monte, California, USA

GOING TO EL MONTE?


FAA INFORMATION EFFECTIVE 16 JUNE 2022

Location

FAA Identifier: EMT
Lat/Long: 34-05-09.6320N 118-02-05.4430W
34-05.160533N 118-02.090717W
34.0860089,-118.0348453
(estimated)
Elevation: 295.6 ft. / 90.1 m (surveyed)
Variation: 14E (1985)
From city: 1 mile N of EL MONTE, CA
Time zone: UTC -7 (UTC -8 during Standard Time)
Zip code: 91731

Airport Operations

Airport use: Open to the public
Activation date: 04/1944
Control tower: yes
ARTCC: LOS ANGELES CENTER
FSS: RIVERSIDE FLIGHT SERVICE STATION
NOTAMs facility: EMT (NOTAM-D service available)
Attendance: CONTINUOUS
Wind indicator: lighted
Segmented circle: yes
Lights: WHEN ATCT CLSD ACTVT MIRL RY 01/19, REIL RY 19, PAPI RYS 01 AND 19 - CTAF.
Beacon: white-green (lighted land airport)
Operates sunset to sunrise.
Taxiway lights: CNTR TWY LGTS ONLY.

Airport Communications

CTAF: 121.2
UNICOM: 122.95
ATIS: 118.75
WX AWOS-3PT: 118.75 ((626) 444-1107)
EL MONTE GROUND: 125.9 [0800-2000]
EL MONTE TOWER: 121.2 [0800-2000]
SOCAL APPROACH: 125.5 ;SW-NORTH
SOCAL DEPARTURE: 125.5 ;SW-NORTH
WX AWOS-3PT at POC (13 nm E): 124.4 (909-596-1523)
WX ASOS at FUL (13 nm S): PHONE 714-870-1372
WX AWOS-3PT at CPM (16 nm SW): 127.150 (310-631-3022)
WX ASOS at LGB (17 nm S): PHONE 562-424-0572
WX AWOS-3P at CCB (17 nm E): 119.525 (909-985-4731)
WX ASOS at BUR (17 nm NW): PHONE 818-841-1384
WX ASOS at HHR (18 nm SW): PHONE 310-973-8930
  • DRG HRS EL MONTE TWR IS OPNL SOCAL APP PRVDS DEP CTL SVC ON 125.5; OTR HRS DEP CTL ON 121.2.

Airport Services

Fuel available: 100LL JET-A
Parking: tiedowns
Airframe service: MAJOR
Powerplant service: MAJOR
Bulk oxygen: NONE

Runway Information

Runway 1/19

Dimensions: 3995 x 75 ft. / 1218 x 23 m
Surface: asphalt/aggregate friction seal coat, in good condition
Weight bearing capacity: 
Single wheel: 12.5
Runway edge lights: medium intensity
RUNWAY 1  RUNWAY 19
Latitude: 34-04.862517N34-05.457367N
Longitude: 118-02.260400W118-01.920483W
Elevation: 281.8 ft.295.6 ft.
Traffic pattern: leftright
Runway heading: 011 magnetic, 025 true191 magnetic, 205 true
Displaced threshold: 290 ft.641 ft.
Declared distances: TORA:3504 TODA:3995 ASDA:3755 LDA:3465TORA:3995 TODA:3995 ASDA:3995 LDA:3354
Markings: basic, in good conditionbasic, in good condition
Visual slope indicator: 2-light PAPI on left (4.57 degrees glide path)2-light PAPI on right (4.50 degrees glide path)
Runway end identifier lights: noyes
Touchdown point: yes, no lightsyes, no lights
Obstructions: 18 ft. pole, 350 ft. from runway, 85 ft. right of centerline, 8:1 slope to clear
RWY 01 +6 FT FENCE 120 FT R OF CNTRLN; +6 FT FENCE 120 FT LEFT & PARALLEL TO CNTRLN 0-200 FT FM END OF RY.
30 ft. pole, 800 ft. from runway, 205 ft. left of centerline, 20:1 slope to clear
+2 FT FENCE 75 FT RIGHT OF CNTRLN AT THR TO 0 FT RIGHT OF CNTRLN AT 200 FT.

Airport Ownership and Management from official FAA records

Ownership: Publicly-owned
Owner: CO OF LOS ANGELES
P O BOX 1460
ALHAMBRA, CA 91803-1331
Phone 626-300-4600
LA COUNTY CTC: PAUL MASELBAS, 626-300-4600 X4615.
Manager: DAVID PRICE
4233 SANTA ANITA AVE
EL MONTE, CA 91731
Phone 626-448-6129

Airport Operational Statistics

Aircraft based on the field: 93
Single engine airplanes: 87
Multi engine airplanes: 1
Helicopters: 5
    
Aircraft operations: avg 240/day *
64% local general aviation
35% transient general aviation
<1% air taxi
<1% military
<1% commercial
* for 12-month period ending 31 December 2021

Additional Remarks

REMAIN OVER PAVED CHANNEL ON CLIMB OUT TO SOUTH AND TO NORTH.
HEAVY BIRD ACTIVITY ON & INVOF ARPT.
LGTD WATER TWR 1 MI W-SW OF ARPT.
NOISE ABATEMENT PROCEDURES IN EFFECT, CTC ARPT MANAGER FOR DETAILS.
FOR CLNC DEL WHEN ATCT CLSD CALL SOCAL APP (800) 448-3724.

Instrument Procedures

NOTE: All procedures below are presented as PDF files. If you need a reader for these files, you should download the free Adobe Reader.

NOT FOR NAVIGATION. Please procure official charts for flight.
FAA instrument procedures published for use from 16 June 2022 at 0901Z to 14 July 2022 at 0900z.

 
STARs - Standard Terminal Arrivals
SETER FIVE   download (268KB)
ZIGGY SEVEN   2 pages: [1] [2] (444KB)
 
IAPs - Instrument Approach Procedures
RNAV (GPS)-B **CHANGED**   download (217KB)
VOR-A   download (314KB)
NOTE: Special Alternate Minimums apply   download (117KB)
NOTE: Special Take-Off Minimums/Departure Procedures apply   download (236KB)

Other nearby airports with instrument procedures:

KPOC - Brackett Field Airport (13 nm E)
KFUL - Fullerton Municipal Airport (13 nm S)
KLGB - Long Beach Airport (Daugherty Field) (17 nm S)
KCCB - Cable Airport (17 nm E)
KBUR - Bob Hope Airport (17 nm NW)
KSLI - Los Alamitos Army Airfield (18 nm S)
KHHR - Jack Northrop Field/Hawthorne Municipal Airport (18 nm SW)
 
Loc | Ops | Rwys | IFR | FBO | Links
Com | Nav | Svcs | Stats | Notes

Luxivair - San Bernardino International Airport
 
Area around KEMT (San Gabriel Valley Airport)
 
Road maps at: MapQuest Bing Google
 
Aerial photo
WARNING: Photo may not be current or correct
Aerial photo of KEMT (San Gabriel Valley Airport)
Photo by Mark Holtzman
West Coast Aerial Photography
Photo taken 01-May-2019
looking northwest.

Do you have a better or more recent aerial photo of San Gabriel Valley Airport that you would like to share? If so, please send us your photo.

 
Sectional chart

 
Airport diagram
CAUTION: Diagram may not be current
Diagram of KEMT (San Gabriel Valley Airport)
Download PDF
of official airport diagram from the FAA

 
Airport distance calculator
Flying to San Gabriel Valley Airport? Find the distance to fly.

From to KEMT

Sunrise and sunset
Times for 29-Jun-2022
 Local
(UTC-7)
 Zulu
(UTC)
Morning civil twilight05:1512:15
Sunrise05:4412:44
Sunset20:0703:07
Evening civil twilight20:3603:36

Current date and time
Zulu (UTC)  29-Jun-2022 08:06:05
Local (UTC-7)  29-Jun-2022 01:06:05
 
METAR
KEMT 290245Z 18009KT 10SM CLR 27/14 A2994
KCQT 
10nm W 
290747Z AUTO 00000KT 10SM CLR 19/16 A2999 RMK AO2 SLP152 T01890156 403220172 $
KPOC 
13nm E 
290347Z 23006KT 10SM CLR 25/13 A3000
KFUL 
13nm S 
290753Z AUTO 19003KT 10SM CLR 20/17 A2998 RMK AO2 SLP152 T02000167 403170189
KLGB 
17nm S 
290753Z AUTO 14003KT 10SM CLR 19/16 A2999 RMK AO2 SLP156 T01940156 402890183
KCCB 
17nm E 
119.525 909-985-4731
290750Z AUTO 33004KT 10SM CLR 25/05 A3001 RMK AO2
KBUR 
18nm NW 
290753Z 13004KT 10SM CLR 23/14 A3000 RMK AO2 SLP143 T02330139 403610222
KHHR 
18nm SW 
290753Z AUTO 00000KT 10SM CLR 19/16 A3000 RMK AO2 SLP157 T01890156 402780183
KSLI 
19nm S 
290758Z AUTO 17003KT 10SM CLR 17/12 A2998 RMK AO2 SLP155 T01740121 402680153
KLAX 
20nm SW 
290753Z 25004KT 10SM FEW008 18/16 A3000 RMK AO2 SLP155 T01780156 402330172
TAF
KLGB 
17nm S 
290536Z 2906/3006 VRB03KT P6SM SKC FM291000 VRB03KT 6SM BR OVC006 FM291700 19008KT P6SM SKC FM300000 28006KT P6SM SKC FM300500 VRB03KT P6SM SKC
KBUR 
18nm NW 
290536Z 2906/3006 VRB03KT P6SM SKC FM291700 17010KT P6SM SKC FM300500 VRB03KT P6SM SKC
KSLI 
19nm S 
282100Z 2821/3003 VRB06KT 9999 SKC QNH2992INS TX29/2823Z TN18/2914Z
KLAX 
20nm SW 
290536Z 2906/3012 25005KT P6SM FEW008 FM290800 24005KT P6SM OVC006 FM291100 VRB03KT 4SM BR OVC003 FM291500 VRB03KT P6SM BKN008 FM291700 25010KT P6SM SKC FM300400 25005KT P6SM SKC FM300700 VRB03KT P6SM OVC006
KSMO 
21nm W 
290346Z 2904/2924 24007KT P6SM FEW010 FM290600 24005KT P6SM OVC006 FM290800 VRB03KT 4SM BR OVC003 FM291500 VRB04KT P6SM BKN008 FM291700 23010KT P6SM FEW010 FEW250
NOTAMs
Click for the latest NOTAMs
NOTAMs are issued by the DoD/FAA and will open in a separate window not controlled by AirNav.

 

 
 

FBO, Fuel Providers, and Aircraft Ground Support

  
 Business Name 
 
 Contact 
 
 Services / Description 
 
Fuel Prices
 
Comments
  
 Billion Air Aviation, Inc.
626-208-3708
toll-free 888-818-8177
[web site]
[email]
Aviation fuel, Aircraft ground handling, Aircraft parking (ramp or tiedown), Hangars, Hangar leasing / sales, Passenger terminal and lounge, ...
 
EPIC Card   Enterprise Rent-A-Car   Hertz  
 
More info about Billion Air Aviation, Inc.
EPIC
100LL Jet A
FS $7.45 $6.95 
 Updated 24-Jun-2022
 
   1 read write
LA County Aviation 626-695-2585
no information available

If you are affiliated with LA County Aviation and would like to show here your services, contact info, web link, logo, and more, click here
100LL Jet A
FS $7.23 $6.68 
SS $6.93 --- 
 Updated 13-Jun-2022
 
   write
FS=Full service
SS=Self service
Update Fuel Prices
 

Would you like to see your business listed on this page?

 If your business provides an interesting product or service to pilots, flight crews, aircraft, or users of the San Gabriel Valley Airport, you should consider listing it here.  To start the listing process, click on the button below
 
Add a business
 

Other Pages about San Gabriel Valley Airport

aacit.caltech.edu/...
 
Update a link
 
Copyright © AirNav, LLC. All rights reserved. Privacy Policy  Contact